Oak Lodge, Oregon
Current Conditions -  °F | °C
As of 10:53 AM on Monday 20 Oct 2014 (Local Time) from KPDX Reporting Station
Overcast Overcast  
Wind Chill: 61°   Ceiling: 5500
Heat Index: 61°   Visibility: 10mi
Dew Point: 56°   Wind: 9mph
Humidity: 83%   Direction: 170°S
Pressure: 29.79"   Gusts: NA
Location:  45.4079°N, 122.613°W
Report Text: KPDX 201753Z 17008KT 10SM FEW016 BKN055 OVC100 16/13 A2979 RMK AO2 RAE1656 SLP088 P0000 60001 T01610133 10161 20150 51008
Loading
Personal Weather Stations






























Interactive Weather Map
Tropical Storm Tracking
New forecast layout! Learn more

10-Day Weather Forecast

Advertisements
Track Severe Weather on mobile